sensor_id;sensor_type;location;lat;lon;timestamp;temperature;humidity
64484;DHT22;50862;51.642;7.964;2022-08-06T00:02:22;13.80;99.90
64484;DHT22;50862;51.642;7.964;2022-08-06T00:04:55;13.90;99.90
64484;DHT22;50862;51.642;7.964;2022-08-06T00:07:25;13.40;99.90
64484;DHT22;50862;51.642;7.964;2022-08-06T00:09:54;13.00;99.90
64484;DHT22;50862;51.642;7.964;2022-08-06T00:12:28;13.00;99.90
64484;DHT22;50862;51.642;7.964;2022-08-06T00:14:59;12.90;99.90
64484;DHT22;50862;51.642;7.964;2022-08-06T00:17:41;12.90;99.90
64484;DHT22;50862;51.642;7.964;2022-08-06T00:20:10;12.80;99.90
64484;DHT22;50862;51.642;7.964;2022-08-06T00:32:52;12.80;99.90
64484;DHT22;50862;51.642;7.964;2022-08-06T00:40:26;12.60;99.90
64484;DHT22;50862;51.642;7.964;2022-08-06T00:42:56;13.00;99.90
64484;DHT22;50862;51.642;7.964;2022-08-06T00:45:28;12.90;99.90
64484;DHT22;50862;51.642;7.964;2022-08-06T00:47:59;12.60;99.90
64484;DHT22;50862;51.642;7.964;2022-08-06T00:50:33;12.40;99.90
64484;DHT22;50862;51.642;7.964;2022-08-06T00:53:04;12.50;99.90
64484;DHT22;50862;51.642;7.964;2022-08-06T00:58:27;12.30;99.90
64484;DHT22;50862;51.642;7.964;2022-08-06T01:01:06;13.00;99.90
64484;DHT22;50862;51.642;7.964;2022-08-06T01:03:45;12.50;99.90
64484;DHT22;50862;51.642;7.964;2022-08-06T01:09:06;12.60;99.90
64484;DHT22;50862;51.642;7.964;2022-08-06T01:14:05;12.90;99.90
64484;DHT22;50862;51.642;7.964;2022-08-06T01:16:40;12.60;99.90
64484;DHT22;50862;51.642;7.964;2022-08-06T01:19:36;12.60;99.90
64484;DHT22;50862;51.642;7.964;2022-08-06T01:22:36;12.70;99.90
64484;DHT22;50862;51.642;7.964;2022-08-06T01:28:17;12.50;99.90
64484;DHT22;50862;51.642;7.964;2022-08-06T01:31:01;12.60;99.90
64484;DHT22;50862;51.642;7.964;2022-08-06T01:33:38;12.60;99.90
64484;DHT22;50862;51.642;7.964;2022-08-06T01:36:18;12.60;99.90
64484;DHT22;50862;51.642;7.964;2022-08-06T01:38:56;12.30;99.90
64484;DHT22;50862;51.642;7.964;2022-08-06T01:41:32;12.80;99.90
64484;DHT22;50862;51.642;7.964;2022-08-06T01:44:29;12.70;99.90
64484;DHT22;50862;51.642;7.964;2022-08-06T01:47:02;12.30;99.90
64484;DHT22;50862;51.642;7.964;2022-08-06T01:49:45;12.20;99.90
64484;DHT22;50862;51.642;7.964;2022-08-06T01:52:34;12.30;99.90
64484;DHT22;50862;51.642;7.964;2022-08-06T01:55:08;12.60;99.90
64484;DHT22;50862;51.642;7.964;2022-08-06T01:57:46;12.90;99.90
64484;DHT22;50862;51.642;7.964;2022-08-06T02:00:41;12.40;99.90
64484;DHT22;50862;51.642;7.964;2022-08-06T02:03:16;12.60;99.90
64484;DHT22;50862;51.642;7.964;2022-08-06T02:05:50;12.50;99.90
64484;DHT22;50862;51.642;7.964;2022-08-06T02:08:27;12.60;99.90
64484;DHT22;50862;51.642;7.964;2022-08-06T02:11:08;12.70;99.90
64484;DHT22;50862;51.642;7.964;2022-08-06T02:13:58;11.90;99.90
64484;DHT22;50862;51.642;7.964;2022-08-06T02:16:33;12.50;99.90
64484;DHT22;50862;51.642;7.964;2022-08-06T02:19:11;12.00;99.90
64484;DHT22;50862;51.642;7.964;2022-08-06T02:21:43;13.80;99.90
64484;DHT22;50862;51.642;7.964;2022-08-06T02:24:19;11.80;99.90
64484;DHT22;50862;51.642;7.964;2022-08-06T02:26:50;12.10;99.90
64484;DHT22;50862;51.642;7.964;2022-08-06T02:29:20;12.30;99.90
64484;DHT22;50862;51.642;7.964;2022-08-06T02:31:53;12.20;99.90
64484;DHT22;50862;51.642;7.964;2022-08-06T02:34:28;12.20;99.90
64484;DHT22;50862;51.642;7.964;2022-08-06T02:37:03;11.70;99.90
64484;DHT22;50862;51.642;7.964;2022-08-06T02:39:40;11.80;99.90
64484;DHT22;50862;51.642;7.964;2022-08-06T02:42:23;11.80;99.90
64484;DHT22;50862;51.642;7.964;2022-08-06T02:44:59;11.90;99.90
64484;DHT22;50862;51.642;7.964;2022-08-06T02:47:33;12.00;99.90
64484;DHT22;50862;51.642;7.964;2022-08-06T02:50:29;11.90;99.90
64484;DHT22;50862;51.642;7.964;2022-08-06T02:53:04;12.10;99.90
64484;DHT22;50862;51.642;7.964;2022-08-06T02:55:45;11.70;99.90
64484;DHT22;50862;51.642;7.964;2022-08-06T02:58:19;13.70;99.90
64484;DHT22;50862;51.642;7.964;2022-08-06T03:01:06;11.60;99.90
64484;DHT22;50862;51.642;7.964;2022-08-06T03:03:38;11.30;99.90
64484;DHT22;50862;51.642;7.964;2022-08-06T03:06:23;11.80;99.90
64484;DHT22;50862;51.642;7.964;2022-08-06T03:08:54;11.80;99.90
64484;DHT22;50862;51.642;7.964;2022-08-06T03:11:23;11.70;99.90
64484;DHT22;50862;51.642;7.964;2022-08-06T03:13:58;11.80;99.90
64484;DHT22;50862;51.642;7.964;2022-08-06T03:16:30;11.70;99.90
64484;DHT22;50862;51.642;7.964;2022-08-06T03:19:04;11.50;99.90
64484;DHT22;50862;51.642;7.964;2022-08-06T03:21:53;11.40;99.90
64484;DHT22;50862;51.642;7.964;2022-08-06T03:24:24;11.60;99.90
64484;DHT22;50862;51.642;7.964;2022-08-06T03:26:58;11.30;99.90
64484;DHT22;50862;51.642;7.964;2022-08-06T03:31:56;11.30;99.90
64484;DHT22;50862;51.642;7.964;2022-08-06T03:34:48;11.40;99.90
64484;DHT22;50862;51.642;7.964;2022-08-06T03:37:20;11.10;99.90
64484;DHT22;50862;51.642;7.964;2022-08-06T03:40:09;11.00;99.90
64484;DHT22;50862;51.642;7.964;2022-08-06T03:42:38;11.80;99.90
64484;DHT22;50862;51.642;7.964;2022-08-06T03:45:10;11.40;99.90
64484;DHT22;50862;51.642;7.964;2022-08-06T03:48:00;11.10;99.90
64484;DHT22;50862;51.642;7.964;2022-08-06T03:50:38;11.10;99.90
64484;DHT22;50862;51.642;7.964;2022-08-06T03:53:17;11.10;99.90
64484;DHT22;50862;51.642;7.964;2022-08-06T03:55:55;11.40;99.90
64484;DHT22;50862;51.642;7.964;2022-08-06T03:58:25;10.90;99.90
64484;DHT22;50862;51.642;7.964;2022-08-06T04:00:59;10.20;99.90
64484;DHT22;50862;51.642;7.964;2022-08-06T04:03:30;8.40;99.90
64484;DHT22;50862;51.642;7.964;2022-08-06T04:06:09;11.40;99.90
64484;DHT22;50862;51.642;7.964;2022-08-06T04:11:15;10.90;99.90
64484;DHT22;50862;51.642;7.964;2022-08-06T04:14:04;11.40;99.90
64484;DHT22;50862;51.642;7.964;2022-08-06T04:16:36;11.40;99.90
64484;DHT22;50862;51.642;7.964;2022-08-06T04:19:07;11.60;99.90
64484;DHT22;50862;51.642;7.964;2022-08-06T04:21:43;11.00;99.90
64484;DHT22;50862;51.642;7.964;2022-08-06T04:27:03;11.00;99.90
64484;DHT22;50862;51.642;7.964;2022-08-06T04:29:37;11.30;99.90
64484;DHT22;50862;51.642;7.964;2022-08-06T04:32:25;10.80;99.90
64484;DHT22;50862;51.642;7.964;2022-08-06T04:37:48;10.80;99.90
64484;DHT22;50862;51.642;7.964;2022-08-06T04:40:19;10.80;99.90
64484;DHT22;50862;51.642;7.964;2022-08-06T04:43:01;10.90;99.90
64484;DHT22;50862;51.642;7.964;2022-08-06T04:45:31;11.00;99.90
64484;DHT22;50862;51.642;7.964;2022-08-06T04:48:20;11.90;99.90
64484;DHT22;50862;51.642;7.964;2022-08-06T04:53:22;11.70;99.90
64484;DHT22;50862;51.642;7.964;2022-08-06T04:58:41;10.90;99.90
64484;DHT22;50862;51.642;7.964;2022-08-06T05:01:10;11.70;99.90
64484;DHT22;50862;51.642;7.964;2022-08-06T05:06:35;11.50;99.90
64484;DHT22;50862;51.642;7.964;2022-08-06T05:09:24;11.30;99.90
64484;DHT22;50862;51.642;7.964;2022-08-06T05:12:19;11.40;99.90
64484;DHT22;50862;51.642;7.964;2022-08-06T05:14:54;11.80;99.90
64484;DHT22;50862;51.642;7.964;2022-08-06T05:17:26;12.10;99.90
64484;DHT22;50862;51.642;7.964;2022-08-06T05:20:04;11.60;99.90
64484;DHT22;50862;51.642;7.964;2022-08-06T05:22:55;11.60;99.90
64484;DHT22;50862;51.642;7.964;2022-08-06T05:25:31;11.70;99.90
64484;DHT22;50862;51.642;7.964;2022-08-06T05:28:03;11.80;99.90
64484;DHT22;50862;51.642;7.964;2022-08-06T05:30:45;12.40;99.90
64484;DHT22;50862;51.642;7.964;2022-08-06T05:33:25;12.40;99.90
64484;DHT22;50862;51.642;7.964;2022-08-06T05:35:57;12.20;99.90
64484;DHT22;50862;51.642;7.964;2022-08-06T05:38:29;12.80;99.90
64484;DHT22;50862;51.642;7.964;2022-08-06T05:41:04;12.30;99.90
64484;DHT22;50862;51.642;7.964;2022-08-06T05:43:34;12.10;99.90
64484;DHT22;50862;51.642;7.964;2022-08-06T05:46:23;12.80;99.90
64484;DHT22;50862;51.642;7.964;2022-08-06T05:48:59;12.70;99.90
64484;DHT22;50862;51.642;7.964;2022-08-06T05:51:52;13.20;99.90
64484;DHT22;50862;51.642;7.964;2022-08-06T05:54:28;12.70;99.90
64484;DHT22;50862;51.642;7.964;2022-08-06T05:57:03;12.70;99.90
64484;DHT22;50862;51.642;7.964;2022-08-06T05:59:35;13.40;99.90
64484;DHT22;50862;51.642;7.964;2022-08-06T06:02:26;13.40;99.90
64484;DHT22;50862;51.642;7.964;2022-08-06T06:04:58;13.50;99.90
64484;DHT22;50862;51.642;7.964;2022-08-06T06:07:48;13.50;99.90
64484;DHT22;50862;51.642;7.964;2022-08-06T06:10:38;13.40;99.90
64484;DHT22;50862;51.642;7.964;2022-08-06T06:13:22;13.50;99.90
64484;DHT22;50862;51.642;7.964;2022-08-06T06:16:12;13.60;99.90
64484;DHT22;50862;51.642;7.964;2022-08-06T06:19:10;14.00;99.90
64484;DHT22;50862;51.642;7.964;2022-08-06T06:21:51;13.60;99.90
64484;DHT22;50862;51.642;7.964;2022-08-06T06:24:26;13.60;99.90
64484;DHT22;50862;51.642;7.964;2022-08-06T06:27:01;13.40;99.90
64484;DHT22;50862;51.642;7.964;2022-08-06T06:29:59;13.90;99.90
64484;DHT22;50862;51.642;7.964;2022-08-06T06:32:41;14.30;99.90
64484;DHT22;50862;51.642;7.964;2022-08-06T06:35:21;14.30;99.90
64484;DHT22;50862;51.642;7.964;2022-08-06T06:38:14;14.60;99.90
64484;DHT22;50862;51.642;7.964;2022-08-06T06:40:58;14.60;99.90
64484;DHT22;50862;51.642;7.964;2022-08-06T06:43:49;14.40;99.90
64484;DHT22;50862;51.642;7.964;2022-08-06T06:46:25;15.00;99.90
64484;DHT22;50862;51.642;7.964;2022-08-06T06:49:11;14.50;99.90
64484;DHT22;50862;51.642;7.964;2022-08-06T06:52:05;14.00;99.90
64484;DHT22;50862;51.642;7.964;2022-08-06T06:54:39;14.90;99.90
64484;DHT22;50862;51.642;7.964;2022-08-06T06:57:15;14.40;99.90
64484;DHT22;50862;51.642;7.964;2022-08-06T06:59:51;14.90;99.90
64484;DHT22;50862;51.642;7.964;2022-08-06T07:02:45;14.80;99.90
64484;DHT22;50862;51.642;7.964;2022-08-06T07:05:16;15.10;99.90
64484;DHT22;50862;51.642;7.964;2022-08-06T07:08:08;15.20;99.90
64484;DHT22;50862;51.642;7.964;2022-08-06T07:10:39;15.30;99.90
64484;DHT22;50862;51.642;7.964;2022-08-06T07:13:11;15.50;99.90
64484;DHT22;50862;51.642;7.964;2022-08-06T07:15:42;15.50;99.90
64484;DHT22;50862;51.642;7.964;2022-08-06T07:18:21;15.70;99.90
64484;DHT22;50862;51.642;7.964;2022-08-06T07:21:01;16.00;99.90
64484;DHT22;50862;51.642;7.964;2022-08-06T07:23:30;16.60;99.90
64484;DHT22;50862;51.642;7.964;2022-08-06T07:26:21;16.20;99.90
64484;DHT22;50862;51.642;7.964;2022-08-06T07:28:52;16.40;99.90
64484;DHT22;50862;51.642;7.964;2022-08-06T07:31:30;16.00;99.90
64484;DHT22;50862;51.642;7.964;2022-08-06T07:34:04;15.90;99.90
64484;DHT22;50862;51.642;7.964;2022-08-06T07:36:37;16.30;99.90
64484;DHT22;50862;51.642;7.964;2022-08-06T07:39:09;16.10;99.90
64484;DHT22;50862;51.642;7.964;2022-08-06T07:41:41;17.30;99.90
64484;DHT22;50862;51.642;7.964;2022-08-06T07:44:34;17.40;99.90
64484;DHT22;50862;51.642;7.964;2022-08-06T07:47:26;18.80;98.20
64484;DHT22;50862;51.642;7.964;2022-08-06T07:50:17;18.90;94.80
64484;DHT22;50862;51.642;7.964;2022-08-06T07:52:52;20.10;91.30
64484;DHT22;50862;51.642;7.964;2022-08-06T07:55:21;19.90;83.20
64484;DHT22;50862;51.642;7.964;2022-08-06T07:58:06;21.10;84.50
64484;DHT22;50862;51.642;7.964;2022-08-06T08:00:36;20.60;81.20
64484;DHT22;50862;51.642;7.964;2022-08-06T08:03:15;20.60;78.60
64484;DHT22;50862;51.642;7.964;2022-08-06T08:06:24;19.50;78.80
64484;DHT22;50862;51.642;7.964;2022-08-06T08:08:54;18.70;77.10
64484;DHT22;50862;51.642;7.964;2022-08-06T08:11:24;17.90;82.20
64484;DHT22;50862;51.642;7.964;2022-08-06T08:14:16;17.30;81.90
64484;DHT22;50862;51.642;7.964;2022-08-06T08:16:45;17.70;80.80
64484;DHT22;50862;51.642;7.964;2022-08-06T08:19:22;18.30;88.70
64484;DHT22;50862;51.642;7.964;2022-08-06T08:21:53;18.10;83.20
64484;DHT22;50862;51.642;7.964;2022-08-06T08:24:23;18.80;81.50
64484;DHT22;50862;51.642;7.964;2022-08-06T08:26:52;19.50;80.70
64484;DHT22;50862;51.642;7.964;2022-08-06T08:29:41;20.80;76.80
64484;DHT22;50862;51.642;7.964;2022-08-06T08:32:21;21.10;70.50
64484;DHT22;50862;51.642;7.964;2022-08-06T08:34:49;21.10;65.60
64484;DHT22;50862;51.642;7.964;2022-08-06T08:37:20;21.20;67.40
64484;DHT22;50862;51.642;7.964;2022-08-06T08:39:49;20.50;65.40
64484;DHT22;50862;51.642;7.964;2022-08-06T08:42:28;20.70;66.80
64484;DHT22;50862;51.642;7.964;2022-08-06T08:45:03;19.80;66.40
64484;DHT22;50862;51.642;7.964;2022-08-06T08:47:43;20.40;66.30
64484;DHT22;50862;51.642;7.964;2022-08-06T08:50:21;20.00;64.50
64484;DHT22;50862;51.642;7.964;2022-08-06T08:53:00;20.50;65.40
64484;DHT22;50862;51.642;7.964;2022-08-06T08:55:31;21.20;62.20
64484;DHT22;50862;51.642;7.964;2022-08-06T08:58:19;21.50;60.70
64484;DHT22;50862;51.642;7.964;2022-08-06T09:01:09;22.10;59.20
64484;DHT22;50862;51.642;7.964;2022-08-06T09:03:58;22.00;56.60
64484;DHT22;50862;51.642;7.964;2022-08-06T09:06:30;22.10;57.50
64484;DHT22;50862;51.642;7.964;2022-08-06T09:09:07;22.10;57.20
64484;DHT22;50862;51.642;7.964;2022-08-06T09:11:43;22.40;56.50
64484;DHT22;50862;51.642;7.964;2022-08-06T09:14:32;22.10;54.90
64484;DHT22;50862;51.642;7.964;2022-08-06T09:17:01;22.40;55.50
64484;DHT22;50862;51.642;7.964;2022-08-06T09:19:36;22.20;54.90
64484;DHT22;50862;51.642;7.964;2022-08-06T09:22:08;21.70;53.80
64484;DHT22;50862;51.642;7.964;2022-08-06T09:24:40;21.90;55.60
64484;DHT22;50862;51.642;7.964;2022-08-06T09:27:11;21.90;56.40
64484;DHT22;50862;51.642;7.964;2022-08-06T09:30:04;22.30;56.10
64484;DHT22;50862;51.642;7.964;2022-08-06T09:32:54;22.80;53.00
64484;DHT22;50862;51.642;7.964;2022-08-06T09:35:30;23.10;54.10
64484;DHT22;50862;51.642;7.964;2022-08-06T09:38:13;23.20;53.90
64484;DHT22;50862;51.642;7.964;2022-08-06T09:41:09;22.80;51.30
64484;DHT22;50862;51.642;7.964;2022-08-06T09:43:42;22.90;51.50
64484;DHT22;50862;51.642;7.964;2022-08-06T09:46:38;23.10;52.60
64484;DHT22;50862;51.642;7.964;2022-08-06T09:49:08;23.00;49.50
64484;DHT22;50862;51.642;7.964;2022-08-06T09:52:16;22.70;49.40
64484;DHT22;50862;51.642;7.964;2022-08-06T09:54:47;21.60;48.10
64484;DHT22;50862;51.642;7.964;2022-08-06T09:57:22;21.60;52.10
64484;DHT22;50862;51.642;7.964;2022-08-06T10:00:04;22.00;51.30
64484;DHT22;50862;51.642;7.964;2022-08-06T10:02:40;22.20;49.40
64484;DHT22;50862;51.642;7.964;2022-08-06T10:05:17;22.20;51.00
64484;DHT22;50862;51.642;7.964;2022-08-06T10:07:47;25.10;52.80
64484;DHT22;50862;51.642;7.964;2022-08-06T10:13:16;21.80;50.00
64484;DHT22;50862;51.642;7.964;2022-08-06T10:15:46;21.70;48.20
64484;DHT22;50862;51.642;7.964;2022-08-06T10:18:37;21.30;49.10
64484;DHT22;50862;51.642;7.964;2022-08-06T10:21:26;21.10;49.50
64484;DHT22;50862;51.642;7.964;2022-08-06T10:24:09;21.10;50.90
64484;DHT22;50862;51.642;7.964;2022-08-06T10:26:40;21.40;51.60
64484;DHT22;50862;51.642;7.964;2022-08-06T10:29:13;21.60;51.40
64484;DHT22;50862;51.642;7.964;2022-08-06T10:31:43;21.70;51.00
64484;DHT22;50862;51.642;7.964;2022-08-06T10:34:23;22.00;51.00
64484;DHT22;50862;51.642;7.964;2022-08-06T10:36:59;22.00;48.10
64484;DHT22;50862;51.642;7.964;2022-08-06T10:39:52;22.10;48.10
64484;DHT22;50862;51.642;7.964;2022-08-06T10:42:37;22.50;49.50
64484;DHT22;50862;51.642;7.964;2022-08-06T10:45:10;22.60;49.00
64484;DHT22;50862;51.642;7.964;2022-08-06T10:47:46;22.50;48.90
64484;DHT22;50862;51.642;7.964;2022-08-06T10:50:35;22.20;47.20
64484;DHT22;50862;51.642;7.964;2022-08-06T10:53:21;21.90;48.80
64484;DHT22;50862;51.642;7.964;2022-08-06T10:56:11;21.70;50.00
64484;DHT22;50862;51.642;7.964;2022-08-06T10:58:44;21.40;49.90
64484;DHT22;50862;51.642;7.964;2022-08-06T11:01:19;21.00;51.50
64484;DHT22;50862;51.642;7.964;2022-08-06T11:04:14;21.00;50.60
64484;DHT22;50862;51.642;7.964;2022-08-06T11:07:08;20.90;49.70
64484;DHT22;50862;51.642;7.964;2022-08-06T11:10:15;21.00;50.70
64484;DHT22;50862;51.642;7.964;2022-08-06T11:12:56;21.50;49.60
64484;DHT22;50862;51.642;7.964;2022-08-06T11:15:25;22.00;49.10
64484;DHT22;50862;51.642;7.964;2022-08-06T11:18:05;22.40;49.20
64484;DHT22;50862;51.642;7.964;2022-08-06T11:20:40;22.70;45.40
64484;DHT22;50862;51.642;7.964;2022-08-06T11:23:26;22.90;45.80
64484;DHT22;50862;51.642;7.964;2022-08-06T11:26:34;22.60;44.30
64484;DHT22;50862;51.642;7.964;2022-08-06T11:29:11;21.60;44.20
64484;DHT22;50862;51.642;7.964;2022-08-06T11:31:42;21.90;45.20
64484;DHT22;50862;51.642;7.964;2022-08-06T11:34:41;22.20;45.40
64484;DHT22;50862;51.642;7.964;2022-08-06T11:37:42;21.80;43.60
64484;DHT22;50862;51.642;7.964;2022-08-06T11:40:52;21.90;44.50
64484;DHT22;50862;51.642;7.964;2022-08-06T11:43:46;21.90;45.80
64484;DHT22;50862;51.642;7.964;2022-08-06T11:46:31;21.80;47.10
64484;DHT22;50862;51.642;7.964;2022-08-06T11:49:21;21.60;48.30
64484;DHT22;50862;51.642;7.964;2022-08-06T11:51:52;21.30;47.50
64484;DHT22;50862;51.642;7.964;2022-08-06T11:54:34;21.00;46.20
64484;DHT22;50862;51.642;7.964;2022-08-06T11:57:24;20.90;46.60
64484;DHT22;50862;51.642;7.964;2022-08-06T12:00:15;21.00;47.40
64484;DHT22;50862;51.642;7.964;2022-08-06T12:02:53;21.50;45.80
64484;DHT22;50862;51.642;7.964;2022-08-06T12:05:39;21.90;45.00
64484;DHT22;50862;51.642;7.964;2022-08-06T12:08:25;21.70;44.70
64484;DHT22;50862;51.642;7.964;2022-08-06T12:14:03;22.60;45.20
64484;DHT22;50862;51.642;7.964;2022-08-06T12:16:52;22.70;44.70
64484;DHT22;50862;51.642;7.964;2022-08-06T12:19:28;23.30;45.00
64484;DHT22;50862;51.642;7.964;2022-08-06T12:21:58;23.00;44.10
64484;DHT22;50862;51.642;7.964;2022-08-06T12:24:29;22.80;44.10
64484;DHT22;50862;51.642;7.964;2022-08-06T12:27:19;22.70;43.60
64484;DHT22;50862;51.642;7.964;2022-08-06T12:30:00;22.20;44.70
64484;DHT22;50862;51.642;7.964;2022-08-06T12:32:30;21.70;43.30
64484;DHT22;50862;51.642;7.964;2022-08-06T12:35:00;21.90;44.30
64484;DHT22;50862;51.642;7.964;2022-08-06T12:37:33;22.20;42.70
64484;DHT22;50862;51.642;7.964;2022-08-06T12:40:16;22.40;42.00
64484;DHT22;50862;51.642;7.964;2022-08-06T12:43:10;22.10;43.10
64484;DHT22;50862;51.642;7.964;2022-08-06T12:45:42;22.50;44.40
64484;DHT22;50862;51.642;7.964;2022-08-06T12:48:31;22.60;42.60
64484;DHT22;50862;51.642;7.964;2022-08-06T12:51:04;22.70;41.90
64484;DHT22;50862;51.642;7.964;2022-08-06T12:53:41;22.60;43.00
64484;DHT22;50862;51.642;7.964;2022-08-06T12:56:16;22.30;44.50
64484;DHT22;50862;51.642;7.964;2022-08-06T12:58:59;22.00;44.80
64484;DHT22;50862;51.642;7.964;2022-08-06T13:01:31;21.90;44.70
64484;DHT22;50862;51.642;7.964;2022-08-06T13:04:20;22.00;45.20
64484;DHT22;50862;51.642;7.964;2022-08-06T13:06:59;22.10;43.10
64484;DHT22;50862;51.642;7.964;2022-08-06T13:09:29;22.00;42.20
64484;DHT22;50862;51.642;7.964;2022-08-06T13:12:13;21.50;45.70
64484;DHT22;50862;51.642;7.964;2022-08-06T13:14:49;21.50;45.30
64484;DHT22;50862;51.642;7.964;2022-08-06T13:17:27;21.20;45.60
64484;DHT22;50862;51.642;7.964;2022-08-06T13:20:15;21.30;46.10
64484;DHT22;50862;51.642;7.964;2022-08-06T13:22:58;21.40;47.20
64484;DHT22;50862;51.642;7.964;2022-08-06T13:25:26;21.50;46.80
64484;DHT22;50862;51.642;7.964;2022-08-06T13:28:17;21.80;47.60
64484;DHT22;50862;51.642;7.964;2022-08-06T13:30:49;22.20;46.50
64484;DHT22;50862;51.642;7.964;2022-08-06T13:33:25;22.50;42.10
64484;DHT22;50862;51.642;7.964;2022-08-06T13:36:05;22.80;43.10
64484;DHT22;50862;51.642;7.964;2022-08-06T13:38:36;23.00;42.50
64484;DHT22;50862;51.642;7.964;2022-08-06T13:41:08;23.20;41.70
64484;DHT22;50862;51.642;7.964;2022-08-06T13:43:41;23.30;39.20
64484;DHT22;50862;51.642;7.964;2022-08-06T13:46:22;23.40;45.10
64484;DHT22;50862;51.642;7.964;2022-08-06T13:48:56;23.50;40.00
64484;DHT22;50862;51.642;7.964;2022-08-06T13:51:28;23.70;42.60
64484;DHT22;50862;51.642;7.964;2022-08-06T13:54:01;23.70;40.40
64484;DHT22;50862;51.642;7.964;2022-08-06T13:56:45;23.30;41.80
64484;DHT22;50862;51.642;7.964;2022-08-06T13:59:21;23.00;42.80
64484;DHT22;50862;51.642;7.964;2022-08-06T14:02:07;22.80;43.00
64484;DHT22;50862;51.642;7.964;2022-08-06T14:04:37;22.10;43.10
64484;DHT22;50862;51.642;7.964;2022-08-06T14:07:07;22.00;44.50
64484;DHT22;50862;51.642;7.964;2022-08-06T14:09:35;21.80;44.40
64484;DHT22;50862;51.642;7.964;2022-08-06T14:12:24;21.70;45.30
64484;DHT22;50862;51.642;7.964;2022-08-06T14:14:57;21.90;45.50
64484;DHT22;50862;51.642;7.964;2022-08-06T14:17:25;22.10;44.50
64484;DHT22;50862;51.642;7.964;2022-08-06T14:20:00;22.10;43.90
64484;DHT22;50862;51.642;7.964;2022-08-06T14:22:49;22.00;44.00
64484;DHT22;50862;51.642;7.964;2022-08-06T14:25:18;22.30;43.70
64484;DHT22;50862;51.642;7.964;2022-08-06T14:27:46;22.30;44.00
64484;DHT22;50862;51.642;7.964;2022-08-06T14:30:18;22.50;42.10
64484;DHT22;50862;51.642;7.964;2022-08-06T14:32:59;22.70;44.50
64484;DHT22;50862;51.642;7.964;2022-08-06T14:35:44;23.10;44.50
64484;DHT22;50862;51.642;7.964;2022-08-06T14:38:18;23.10;41.00
64484;DHT22;50862;51.642;7.964;2022-08-06T14:40:58;22.20;39.50
64484;DHT22;50862;51.642;7.964;2022-08-06T14:44:04;23.10;41.50
64484;DHT22;50862;51.642;7.964;2022-08-06T14:46:52;23.40;40.20
64484;DHT22;50862;51.642;7.964;2022-08-06T14:49:20;23.50;39.80
64484;DHT22;50862;51.642;7.964;2022-08-06T14:51:48;23.20;39.80
64484;DHT22;50862;51.642;7.964;2022-08-06T14:54:37;23.40;41.30
64484;DHT22;50862;51.642;7.964;2022-08-06T14:57:08;23.80;40.20
64484;DHT22;50862;51.642;7.964;2022-08-06T14:59:57;23.70;39.10
64484;DHT22;50862;51.642;7.964;2022-08-06T15:02:27;23.50;40.90
64484;DHT22;50862;51.642;7.964;2022-08-06T15:04:56;23.30;41.40
64484;DHT22;50862;51.642;7.964;2022-08-06T15:07:27;23.10;41.40
64484;DHT22;50862;51.642;7.964;2022-08-06T15:10:08;22.80;41.80
64484;DHT22;50862;51.642;7.964;2022-08-06T15:12:54;22.70;42.50
64484;DHT22;50862;51.642;7.964;2022-08-06T15:15:29;22.60;42.80
64484;DHT22;50862;51.642;7.964;2022-08-06T15:18:14;22.50;41.90
64484;DHT22;50862;51.642;7.964;2022-08-06T15:21:03;22.60;42.00
64484;DHT22;50862;51.642;7.964;2022-08-06T15:23:41;22.80;41.90
64484;DHT22;50862;51.642;7.964;2022-08-06T15:26:20;22.80;40.40
64484;DHT22;50862;51.642;7.964;2022-08-06T15:29:08;22.90;40.20
64484;DHT22;50862;51.642;7.964;2022-08-06T15:31:42;23.10;39.30
64484;DHT22;50862;51.642;7.964;2022-08-06T15:34:12;23.40;40.20
64484;DHT22;50862;51.642;7.964;2022-08-06T15:36:53;23.60;40.40
64484;DHT22;50862;51.642;7.964;2022-08-06T15:39:29;23.80;39.80
64484;DHT22;50862;51.642;7.964;2022-08-06T15:42:19;23.80;40.40
64484;DHT22;50862;51.642;7.964;2022-08-06T15:44:49;23.70;40.80
64484;DHT22;50862;51.642;7.964;2022-08-06T15:47:19;23.70;40.70
64484;DHT22;50862;51.642;7.964;2022-08-06T15:50:00;23.70;40.70
64484;DHT22;50862;51.642;7.964;2022-08-06T15:52:32;23.70;40.30
64484;DHT22;50862;51.642;7.964;2022-08-06T15:55:04;23.70;40.40
64484;DHT22;50862;51.642;7.964;2022-08-06T15:57:42;23.70;39.50
64484;DHT22;50862;51.642;7.964;2022-08-06T16:00:31;23.80;39.40
64484;DHT22;50862;51.642;7.964;2022-08-06T16:03:02;23.50;40.10
64484;DHT22;50862;51.642;7.964;2022-08-06T16:05:35;23.30;40.30
64484;DHT22;50862;51.642;7.964;2022-08-06T16:08:23;22.90;40.10
64484;DHT22;50862;51.642;7.964;2022-08-06T16:11:06;22.70;40.70
64484;DHT22;50862;51.642;7.964;2022-08-06T16:13:35;22.40;41.40
64484;DHT22;50862;51.642;7.964;2022-08-06T16:16:05;22.20;40.90
64484;DHT22;50862;51.642;7.964;2022-08-06T16:18:34;22.10;41.50
64484;DHT22;50862;51.642;7.964;2022-08-06T16:21:16;21.90;41.40
64484;DHT22;50862;51.642;7.964;2022-08-06T16:23:45;21.80;41.40
64484;DHT22;50862;51.642;7.964;2022-08-06T16:26:29;21.80;41.50
64484;DHT22;50862;51.642;7.964;2022-08-06T16:29:14;21.80;41.00
64484;DHT22;50862;51.642;7.964;2022-08-06T16:31:43;21.60;40.40
64484;DHT22;50862;51.642;7.964;2022-08-06T16:34:16;21.60;41.10
64484;DHT22;50862;51.642;7.964;2022-08-06T16:36:58;21.50;41.20
64484;DHT22;50862;51.642;7.964;2022-08-06T16:39:47;21.60;43.60
64484;DHT22;50862;51.642;7.964;2022-08-06T16:42:27;21.60;44.20
64484;DHT22;50862;51.642;7.964;2022-08-06T16:44:55;21.70;43.40
64484;DHT22;50862;51.642;7.964;2022-08-06T16:47:35;21.60;47.00
64484;DHT22;50862;51.642;7.964;2022-08-06T16:50:23;21.50;48.00
64484;DHT22;50862;51.642;7.964;2022-08-06T16:53:05;21.40;48.60
64484;DHT22;50862;51.642;7.964;2022-08-06T16:55:53;21.20;48.90
64484;DHT22;50862;51.642;7.964;2022-08-06T16:58:21;21.20;46.60
64484;DHT22;50862;51.642;7.964;2022-08-06T17:01:10;21.30;46.40
64484;DHT22;50862;51.642;7.964;2022-08-06T17:03:58;21.40;48.20
64484;DHT22;50862;51.642;7.964;2022-08-06T17:06:29;21.40;46.60
64484;DHT22;50862;51.642;7.964;2022-08-06T17:09:04;21.40;45.10
64484;DHT22;50862;51.642;7.964;2022-08-06T17:11:45;21.50;48.30
64484;DHT22;50862;51.642;7.964;2022-08-06T17:14:27;21.60;46.20
64484;DHT22;50862;51.642;7.964;2022-08-06T17:16:59;21.70;46.10
64484;DHT22;50862;51.642;7.964;2022-08-06T17:19:49;21.90;45.60
64484;DHT22;50862;51.642;7.964;2022-08-06T17:22:37;21.90;46.70
64484;DHT22;50862;51.642;7.964;2022-08-06T17:25:10;22.00;47.20
64484;DHT22;50862;51.642;7.964;2022-08-06T17:27:58;22.10;48.60
64484;DHT22;50862;51.642;7.964;2022-08-06T17:30:27;22.10;49.50
64484;DHT22;50862;51.642;7.964;2022-08-06T17:32:55;22.10;48.00
64484;DHT22;50862;51.642;7.964;2022-08-06T17:35:24;21.00;50.20